Map

Track Data

SID SEASON NUMBER BASIN SUBBASIN NAME ISO_TIME NATURE LAT LON WMO_WIND WMO_PRES WMO_AGENCY TRACK_TYPE DIST2LAND LANDFALL IFLAG USA_AGENCY USA_ATCF_ID USA_LAT USA_LON USA_RECORD USA_STATUS USA_WIND USA_PRES USA_SSHS USA_R34_NE USA_R34_SE USA_R34_SW USA_R34_NW USA_R50_NE USA_R50_SE USA_R50_SW USA_R50_NW USA_R64_NE USA_R64_SE USA_R64_SW USA_R64_NW USA_POCI USA_ROCI USA_RMW USA_EYE TOKYO_LAT TOKYO_LON TOKYO_GRADE TOKYO_WIND TOKYO_PRES TOKYO_R50_DIR TOKYO_R50_LONG TOKYO_R50_SHORT TOKYO_R30_DIR TOKYO_R30_LONG TOKYO_R30_SHORT TOKYO_LAND CMA_LAT CMA_LON CMA_CAT CMA_WIND CMA_PRES HKO_LAT HKO_LON HKO_CAT HKO_WIND HKO_PRES NEWDELHI_LAT NEWDELHI_LON NEWDELHI_GRADE NEWDELHI_WIND NEWDELHI_PRES NEWDELHI_CI NEWDELHI_DP NEWDELHI_POCI REUNION_LAT REUNION_LON REUNION_TYPE REUNION_WIND REUNION_PRES REUNION_TNUM REUNION_CI REUNION_RMW REUNION_R34_NE REUNION_R34_SE REUNION_R34_SW REUNION_R34_NW REUNION_R50_NE REUNION_R50_SE REUNION_R50_SW REUNION_R50_NW REUNION_R64_NE REUNION_R64_SE REUNION_R64_SW REUNION_R64_NW BOM_LAT BOM_LON BOM_TYPE BOM_WIND BOM_PRES BOM_TNUM BOM_CI BOM_RMW BOM_R34_NE BOM_R34_SE BOM_R34_SW BOM_R34_NW BOM_R50_NE BOM_R50_SE BOM_R50_SW BOM_R50_NW BOM_R64_NE BOM_R64_SE BOM_R64_SW BOM_R64_NW BOM_ROCI BOM_POCI BOM_EYE BOM_POS_METHOD BOM_PRES_METHOD NADI_LAT NADI_LON NADI_CAT NADI_WIND NADI_PRES WELLINGTON_LAT WELLINGTON_LON WELLINGTON_WIND WELLINGTON_PRES DS824_LAT DS824_LON DS824_STAGE DS824_WIND DS824_PRES TD9636_LAT TD9636_LON TD9636_STAGE TD9636_WIND TD9636_PRES TD9635_LAT TD9635_LON TD9635_WIND TD9635_PRES TD9635_ROCI NEUMANN_LAT NEUMANN_LON NEUMANN_CLASS NEUMANN_WIND NEUMANN_PRES MLC_LAT MLC_LON MLC_CLASS MLC_WIND MLC_PRES USA_GUST BOM_GUST BOM_GUST_PER REUNION_GUST REUNION_GUST_PER USA_SEAHGT USA_SEARAD_NE USA_SEARAD_SE USA_SEARAD_SW USA_SEARAD_NW STORM_SPEED STORM_DIR
1923217N23089 1923 47 NI BB NOT_NAMED 1923-08-05 00:00:00 TS 22.8000 89.2000 main 0 0 _________O____ -1 22.8000 89.2000 TC 30 3 298
1923217N23089 1923 47 NI BB NOT_NAMED 1923-08-05 03:00:00 TS 22.8667 89.0650 main 0 0 _________PO___ -1 22.9001 88.9976 TC 30 22.8000 89.2000 1 3 298
1923217N23089 1923 47 NI BB NOT_NAMED 1923-08-05 06:00:00 TS 22.9629 88.8708 main 0 0 _________OP___ -1 23.0000 88.8000 TC 30 22.9072 88.9771 1 4 298
1923217N23089 1923 47 NI BB NOT_NAMED 1923-08-05 09:00:00 TS 23.0620 88.6742 main 0 0 _________PP___ -1 23.0999 88.6075 TC 30 23.0114 88.7632 1 4 298
1923217N23089 1923 47 NI BB NOT_NAMED 1923-08-05 12:00:00 TS 23.1549 88.4838 main 0 0 _________OP___ -1 23.2000 88.4000 TC 30 23.1098 88.5677 1 4 298
1923217N23089 1923 47 NI BB NOT_NAMED 1923-08-05 15:00:00 TS 23.2537 88.2788 main 0 0 _________PO___ -1 23.3075 88.1575 TC 30 23.2000 88.4000 1 4 296
1923217N23089 1923 47 NI BB NOT_NAMED 1923-08-05 18:00:00 TS 23.3402 88.0786 main 0 0 _________OP___ -1 23.4000 87.9000 TC 30 23.2804 88.2572 1 4 294
1923217N23089 1923 47 NI BB NOT_NAMED 1923-08-05 21:00:00 TS 23.4019 87.9094 main 0 0 _________PP___ -1 23.4493 87.7322 TC 30 23.3545 88.0866 1 4 286
1923217N23089 1923 47 NI BB NOT_NAMED 1923-08-06 00:00:00 TS 23.4632 87.6113 main 0 0 _________OP___ -1 23.5000 87.4000 TC 30 23.4264 87.8227 1 8 281
1923217N23089 1923 47 NI BB NOT_NAMED 1923-08-06 03:00:00 TS 23.5502 87.0451 main 0 0 _________PO___ -1 23.6004 86.6902 TC 30 23.5000 87.4000 1 12 278
1923217N23089 1923 47 NI BB NOT_NAMED 1923-08-06 06:00:00 TS 23.6263 86.2676 main 0 0 _________OP___ -1 23.7000 85.8000 TC 30 23.5526 86.7352 1 15 275
1923217N23089 1923 47 NI BB NOT_NAMED 1923-08-06 09:00:00 TS 23.6712 85.4313 main 0 0 _________PP___ -1 23.7348 84.9494 TC 30 23.6076 85.9131 1 16 274
1923217N23089 1923 47 NI BB NOT_NAMED 1923-08-06 12:00:00 TS 23.7418 84.5548 main 0 0 _________OP___ -1 23.8000 84.1000 TC 30 23.6835 85.0097 1 16 278
1923217N23089 1923 47 NI BB NOT_NAMED 1923-08-06 15:00:00 TS 23.8847 83.6963 main 0 0 _________PO___ -1 23.9695 83.2925 TC 30 23.8000 84.1000 1 16 283
1923217N23089 1923 47 NI BB NOT_NAMED 1923-08-06 18:00:00 TS 24.0996 82.8549 main 0 0 _________OP___ -1 24.2000 82.5000 TC 30 23.9992 83.2098 1 16 287
1923217N23089 1923 47 NI BB NOT_NAMED 1923-08-06 21:00:00 TS 24.3512 81.9819 main 0 0 _________PP___ -1 24.4655 81.6256 TC 30 24.2369 82.3382 1 16 288
1923217N23089 1923 47 NI BB NOT_NAMED 1923-08-07 00:00:00 TS 24.5904 81.2236 main 0 0 _________OP___ -1 24.7000 80.9000 TC 30 24.4808 81.5471 1 12 289
1923217N23089 1923 47 NI BB NOT_NAMED 1923-08-07 03:00:00 TS 24.7571 80.7085 main 0 0 _________PO___ -1 24.8143 80.5169 TC 30 24.7000 80.9000 1 8 290
1923217N23089 1923 47 NI BB NOT_NAMED 1923-08-07 06:00:00 TS 24.8673 80.3962 main 0 0 _________OP___ -1 24.9000 80.3000 TC 30 24.8345 80.4923 1 6 295
1923217N23089 1923 47 NI BB NOT_NAMED 1923-08-07 09:00:00 TS 24.9906 80.1461 main 0 0 _________PP___ -1 25.0348 80.0648 TC 30 24.9464 80.2274 1 5 301
1923217N23089 1923 47 NI BB NOT_NAMED 1923-08-07 12:00:00 TS 25.1301 79.9119 main 0 0 _________OP___ -1 25.2000 79.8000 TC 30 25.0602 80.0238 1 6 302
1923217N23089 1923 47 NI BB NOT_NAMED 1923-08-07 15:00:00 TS 25.2925 79.6112 main 0 0 _________PO___ -1 25.3851 79.4225 TC 30 25.2000 79.8000 1 7 301
1923217N23089 1923 47 NI BB NOT_NAMED 1923-08-07 18:00:00 TS 25.4761 79.2809 main 0 0 _________OP___ -1 25.6000 79.0000 TC 30 25.3832 79.4916 1 8 302
1923217N23089 1923 47 NI BB NOT_NAMED 1923-08-07 21:00:00 TS 25.6987 78.9004 main 0 0 _________PP___ -1 25.8426 78.5928 TC 30 25.6028 79.1054 1 8 303
1923217N23089 1923 47 NI BB NOT_NAMED 1923-08-08 00:00:00 TS 25.9307 78.5110 main 0 0 _________OP___ -1 26.1000 78.2000 TC 30 25.8460 78.6665 1 7 303
1923217N23089 1923 47 NI BB NOT_NAMED 1923-08-08 03:00:00 NR 26.1000 78.2000 main 0 __________O___ -1 TC 26.1000 78.2000 1 7 301

About IBTrACS Database

This database is a web-friendly format of International Best Track Archive for Climate Stewardship (IBTrACS), a global best track data archive curated by NOAA dating back to 1842.

Updated: 2021-10-25